Time;durP1;ratioP1;P1;durP2;ratioP2;P2;SDS_P1;SDS_P2;PMS_P1;PMS_P2;Temp;Humidity;BMP_temperature;BMP_pressure;BME280_temperature;BME280_humidity;BME280_pressure;Samples;Min_cycle;Max_cycle;Signal;HPM_P1;HPM_P2
2022/04/19 00:01:13;;;;;;;1.63;1.60;;;;;;;9.72;58.13;94139.88;5050810;28;20555;-84
2022/04/19 00:03:40;;;;;;;2.00;1.80;;;;;;;9.76;57.95;94148.88;5071553;28;20208;-83
2022/04/19 00:06:07;;;;;;;2.17;1.97;;;;;;;9.47;58.13;94095.47;5074794;28;20190;-83
2022/04/19 00:08:35;;;;;;;1.90;1.80;;;;;;;9.75;58.10;94139.56;5072710;28;20233;-86
2022/04/19 00:11:04;;;;;;;2.00;1.90;;;;;;;9.74;58.10;94137.97;5073412;28;20598;-87
2022/04/19 00:13:31;;;;;;;1.70;1.60;;;;;;;9.66;57.92;94120.03;5057255;28;20190;-82
2022/04/19 00:15:58;;;;;;;1.80;1.70;;;;;;;9.74;58.00;94140.53;5053666;28;20191;-84
2022/04/19 00:18:26;;;;;;;2.30;2.10;;;;;;;9.65;58.08;94120.97;5051819;28;20187;-80
2022/04/19 00:20:54;;;;;;;3.93;1.90;;;;;;;9.72;58.15;94133.03;5051359;28;20225;-81
2022/04/19 00:23:22;;;;;;;1.90;1.80;;;;;;;9.70;58.13;94122.16;5051341;28;20194;-80
2022/04/19 00:25:50;;;;;;;1.70;1.60;;;;;;;9.70;58.17;94129.81;5050793;28;20191;-81
2022/04/19 00:28:18;;;;;;;2.10;1.90;;;;;;;9.69;58.14;94128.22;5051502;28;20199;-81
2022/04/19 00:30:46;;;;;;;1.93;1.83;;;;;;;9.67;58.29;94124.19;5051079;28;20230;-79
2022/04/19 00:33:14;;;;;;;2.03;1.93;;;;;;;9.66;58.25;94113.16;5050707;28;20206;-80
2022/04/19 00:35:40;;;;;;;2.30;2.10;;;;;;;9.65;58.12;94111.56;5051037;28;20187;-80
2022/04/19 00:38:09;;;;;;;2.30;2.17;;;;;;;9.63;58.22;94110.94;5050280;28;20779;-80
2022/04/19 00:40:36;;;;;;;2.00;1.90;;;;;;;9.65;58.48;94111.56;5051198;28;20187;-79
2022/04/19 00:43:04;;;;;;;2.10;2.00;;;;;;;9.65;58.32;94109.03;5050553;28;20210;-80
2022/04/19 00:45:34;;;;;;;2.10;1.90;;;;;;;9.61;58.36;94107.72;5050824;28;20195;-79
2022/04/19 00:48:02;;;;;;;2.03;1.93;;;;;;;9.63;58.26;94107.56;5050924;28;20194;-80
2022/04/19 00:50:30;;;;;;;2.23;2.10;;;;;;;9.61;58.42;94109.47;5050202;28;20230;-83
2022/04/19 00:52:57;;;;;;;2.10;2.00;;;;;;;9.61;58.37;94107.72;5048822;28;20199;-78
2022/04/19 00:55:25;;;;;;;2.30;2.10;;;;;;;9.61;58.50;94101.81;5050906;28;20187;-78
2022/04/19 00:57:52;;;;;;;2.13;2.00;;;;;;;9.43;58.44;94073.72;5050175;28;20191;-80
2022/04/19 01:00:21;;;;;;;2.00;1.90;;;;;;;9.55;58.53;94098.09;5050658;28;20198;-78
2022/04/19 01:02:49;;;;;;;1.70;1.60;;;;;;;9.55;58.74;94093.78;5050243;28;20195;-79
2022/04/19 01:05:16;;;;;;;2.00;1.80;;;;;;;9.59;58.54;94096.84;5050952;28;20195;-82
2022/04/19 01:07:46;;;;;;;2.10;2.00;;;;;;;9.56;58.60;94097.13;5050433;28;20191;-78
2022/04/19 01:10:13;;;;;;;2.17;1.97;;;;;;;9.56;58.75;94097.13;5050319;28;20637;-79
2022/04/19 01:15:24;;;;;;;3.87;2.10;;;;;;;9.59;58.58;94093.50;5050026;28;20185;-81
2022/04/19 01:17:54;;;;;;;2.27;2.07;;;;;;;9.61;58.50;94096.69;5048887;28;20194;-78
2022/04/19 01:20:21;;;;;;;4.17;3.73;;;;;;;9.53;58.42;94082.91;5049771;28;20281;-80
2022/04/19 01:22:50;;;;;;;4.23;3.80;;;;;;;9.57;58.75;94092.84;5050031;28;20195;-80
2022/04/19 01:25:19;;;;;;;2.70;2.50;;;;;;;9.58;58.33;94095.22;5050184;28;20835;-82
2022/04/19 01:27:49;;;;;;;3.97;3.67;;;;;;;9.58;58.66;94091.88;5035381;28;20238;-79
2022/04/19 01:30:17;;;;;;;3.13;2.80;;;;;;;9.37;58.37;94057.25;5030399;28;20219;-83
2022/04/19 01:32:44;;;;;;;7.33;5.67;;;;;;;9.55;58.77;94093.78;5048804;28;20368;-80
2022/04/19 01:35:13;;;;;;;10.30;7.27;;;;;;;9.54;58.81;94087.09;5050127;28;20194;-78
2022/04/19 01:37:41;;;;;;;10.73;7.80;;;;;;;9.50;58.87;94083.22;5049873;28;20190;-81
2022/04/19 01:40:19;;;;;;;17.83;11.87;;;;;;;9.52;58.84;94085.63;5049673;28;20639;-80
2022/04/19 01:42:47;;;;;;;11.50;9.10;;;;;;;9.51;58.79;94087.38;5047863;28;20240;-80
2022/04/19 01:45:14;;;;;;;8.60;6.37;;;;;;;9.48;58.77;94079.19;5049923;28;20187;-79
2022/04/19 01:47:42;;;;;;;6.73;5.87;;;;;;;9.50;58.77;94082.41;5050114;28;20206;-80
2022/04/19 01:50:11;;;;;;;8.23;6.40;;;;;;;9.53;58.86;94087.22;5049337;28;20249;-78
2022/04/19 01:52:38;;;;;;;6.47;5.20;;;;;;;9.53;58.83;94088.00;5029782;28;20583;-79
2022/04/19 01:55:07;;;;;;;7.20;4.83;;;;;;;9.53;58.79;94092.31;5030298;28;20218;-81
2022/04/19 01:57:36;;;;;;;5.63;4.93;;;;;;;9.52;58.84;94088.16;5045163;28;20210;-84
2022/04/19 02:00:04;;;;;;;4.63;4.00;;;;;;;9.48;59.49;94084.31;5049610;28;20313;-80
2022/04/19 02:02:31;;;;;;;3.90;3.47;;;;;;;9.50;59.14;94095.19;5049796;28;20203;-79
2022/04/19 02:04:58;;;;;;;8.37;5.83;;;;;;;9.49;59.28;94093.56;5049480;28;20198;-81
2022/04/19 02:07:25;;;;;;;4.30;3.97;;;;;;;9.44;59.33;94080.44;5047641;28;20202;-82
2022/04/19 02:09:52;;;;;;;3.50;3.03;;;;;;;9.47;59.17;94083.50;5048987;28;20330;-82
2022/04/19 02:12:19;;;;;;;3.90;3.50;;;;;;;9.47;59.10;94077.59;5049457;28;20716;-81
2022/04/19 02:14:47;;;;;;;3.37;3.00;;;;;;;9.52;58.85;94083.06;5049773;28;20214;-78
2022/04/19 02:17:14;;;;;;;2.67;2.47;;;;;;;9.52;58.92;94077.97;5049727;28;20195;-79
2022/04/19 02:19:40;;;;;;;2.87;2.53;;;;;;;9.49;59.11;94080.78;5049508;28;20187;-78
2022/04/19 02:22:09;;;;;;;2.90;2.70;;;;;;;9.48;59.12;94081.75;5048989;28;20203;-79
2022/04/19 02:24:37;;;;;;;2.77;2.57;;;;;;;9.48;59.13;94084.31;5049382;28;20190;-80
2022/04/19 02:27:05;;;;;;;2.40;2.20;;;;;;;9.42;59.28;94085.69;5049339;28;20205;-80
2022/04/19 02:29:32;;;;;;;2.83;2.60;;;;;;;9.42;59.48;94087.44;5049947;28;20633;-81
2022/04/19 02:32:00;;;;;;;2.90;2.40;;;;;;;9.43;59.28;94089.03;5032316;28;20226;-79
2022/04/19 02:34:27;;;;;;;2.37;2.17;;;;;;;9.45;59.13;94087.13;5033536;28;20187;-79
2022/04/19 02:36:54;;;;;;;3.13;2.77;;;;;;;9.41;59.32;94086.66;5033229;28;20685;-79
2022/04/19 02:39:21;;;;;;;2.40;2.23;;;;;;;9.33;59.14;94068.72;5033105;28;20227;-79
2022/04/19 02:41:47;;;;;;;2.20;2.10;;;;;;;9.40;59.46;94079.91;5033162;28;20238;-80
2022/04/19 02:44:14;;;;;;;2.40;2.20;;;;;;;9.37;59.20;94070.03;5033211;28;20231;-80
2022/04/19 02:46:41;;;;;;;2.20;2.00;;;;;;;9.30;59.43;94069.78;5032889;28;20199;-82
2022/04/19 02:49:10;;;;;;;2.40;2.20;;;;;;;9.43;59.20;94079.63;5033272;28;20192;-79
2022/04/19 02:51:36;;;;;;;2.07;1.93;;;;;;;9.42;59.43;94088.25;5052135;28;20246;-77
2022/04/19 02:54:04;;;;;;;2.27;2.07;;;;;;;9.22;59.53;94053.59;5052764;28;20569;-82
2022/04/19 02:56:30;;;;;;;2.33;2.17;;;;;;;9.41;59.25;94089.19;5052739;28;20418;-82
2022/04/19 02:58:59;;;;;;;2.50;2.30;;;;;;;9.40;59.63;94099.53;5053202;28;20187;-81
2022/04/19 03:01:26;;;;;;;2.23;2.00;;;;;;;9.38;59.27;94094.59;5052976;28;20266;-80
2022/04/19 03:03:53;;;;;;;2.27;2.17;;;;;;;9.38;59.51;94104.00;5052557;28;20249;-79
2022/04/19 03:06:22;;;;;;;2.37;2.27;;;;;;;9.26;59.38;94086.34;5053110;28;20191;-81
2022/04/19 03:08:48;;;;;;;2.67;2.47;;;;;;;9.39;59.40;94103.03;5052009;28;20226;-82
2022/04/19 03:11:15;;;;;;;2.50;2.40;;;;;;;9.39;59.31;94111.50;5052354;28;20187;-81
2022/04/19 03:13:43;;;;;;;2.03;1.93;;;;;;;9.40;59.29;94110.53;5052308;28;20290;-82
2022/04/19 03:16:13;;;;;;;2.37;2.27;;;;;;;9.41;59.14;94111.34;5052430;28;20741;-82
2022/04/19 03:18:41;;;;;;;2.67;2.47;;;;;;;9.40;59.41;94114.84;5052364;28;20795;-80
2022/04/19 03:21:09;;;;;;;3.23;3.00;;;;;;;9.38;59.23;94114.19;5052870;28;20246;-81
2022/04/19 03:29:06;;;;;;;2.30;2.20;;;;;;;9.35;59.15;94106.81;5055948;28;20201;-82
2022/04/19 03:31:34;;;;;;;2.00;1.90;;;;;;;9.40;59.31;94119.94;5057984;28;20202;-82
2022/04/19 03:34:02;;;;;;;2.40;2.20;;;;;;;9.36;59.37;94114.31;5056796;28;20573;-83
2022/04/19 03:36:29;;;;;;;3.47;2.10;;;;;;;9.35;59.29;94111.94;5054125;28;20187;-83
2022/04/19 03:38:58;;;;;;;2.60;2.40;;;;;;;9.38;59.59;94124.41;5051888;28;20681;-81
2022/04/19 03:41:25;;;;;;;3.23;3.03;;;;;;;9.29;59.69;94118.41;5058612;28;20246;-83
2022/04/19 03:43:52;;;;;;;2.30;2.20;;;;;;;9.40;59.59;94132.72;5057704;28;20206;-83
2022/04/19 03:46:21;;;;;;;2.37;2.23;;;;;;;9.29;59.87;94114.13;5057912;28;20191;-84
2022/04/19 03:48:48;;;;;;;2.53;2.37;;;;;;;9.41;59.54;94129.19;5056208;28;20179;-83
2022/04/19 03:51:15;;;;;;;2.67;2.47;;;;;;;9.37;59.74;94126.16;5051493;28;20561;-82
2022/04/19 03:53:42;;;;;;;2.90;2.70;;;;;;;9.39;59.58;94131.09;5051351;28;20250;-82
2022/04/19 03:56:10;;;;;;;2.30;2.20;;;;;;;9.41;59.66;94137.69;5051548;28;20197;-82
2022/04/19 03:58:39;;;;;;;3.27;2.97;;;;;;;9.41;59.74;94149.63;5051936;28;20195;-83
2022/04/19 04:01:06;;;;;;;3.50;3.20;;;;;;;9.39;59.77;94144.66;5051846;28;20187;-82
2022/04/19 04:03:32;;;;;;;3.27;2.97;;;;;;;9.39;59.75;94139.56;5051691;28;20235;-83
2022/04/19 04:05:59;;;;;;;3.67;3.37;;;;;;;9.37;60.12;94146.56;5052442;28;20210;-83
2022/04/19 04:08:26;;;;;;;3.63;3.33;;;;;;;9.36;60.17;94144.16;5051637;28;20223;-81
2022/04/19 04:10:53;;;;;;;3.73;3.33;;;;;;;9.36;60.12;94149.25;5052595;28;20199;-81
2022/04/19 04:13:21;;;;;;;3.67;3.37;;;;;;;9.33;60.30;94147.00;5051570;28;20211;-83
2022/04/19 04:15:48;;;;;;;4.10;3.70;;;;;;;9.30;60.34;94151.44;5052147;28;20191;-79
2022/04/19 04:18:17;;;;;;;4.10;3.80;;;;;;;9.32;60.46;94147.94;5052482;28;20195;-83
2022/04/19 04:20:44;;;;;;;4.57;4.17;;;;;;;9.33;60.54;94157.22;5051770;28;20199;-83
2022/04/19 04:23:11;;;;;;;5.27;4.77;;;;;;;9.11;60.37;94122.66;5052341;28;20194;-81
2022/04/19 04:25:38;;;;;;;5.20;4.77;;;;;;;9.33;60.60;94163.13;5051302;28;20595;-80
2022/04/19 04:28:05;;;;;;;5.47;4.67;;;;;;;9.25;60.41;94142.63;5051729;28;20622;-80
2022/04/19 04:30:33;;;;;;;5.80;5.20;;;;;;;9.29;60.50;94149.03;5051164;28;20191;-80
2022/04/19 04:33:00;;;;;;;4.73;4.33;;;;;;;9.39;60.41;94166.84;5051668;28;20238;-79
2022/04/19 04:35:27;;;;;;;5.77;5.27;;;;;;;9.39;60.56;94165.09;5051121;28;20207;-82
2022/04/19 04:37:54;;;;;;;4.93;4.40;;;;;;;9.39;60.56;94166.84;5052738;28;20198;-81
2022/04/19 04:40:21;;;;;;;5.67;5.07;;;;;;;9.39;60.72;94170.19;5052949;28;20187;-82
2022/04/19 04:42:47;;;;;;;5.97;5.37;;;;;;;9.40;60.58;94169.22;5054248;28;20187;-78
2022/04/19 04:45:14;;;;;;;6.13;4.90;;;;;;;9.42;60.59;94174.22;5053523;28;20248;-78
2022/04/19 04:50:27;;;;;;;5.40;4.90;;;;;;;9.44;60.54;94175.66;5053864;28;20182;-78
2022/04/19 04:52:55;;;;;;;5.90;5.30;;;;;;;9.44;60.41;94168.00;5056667;28;20736;-86
2022/04/19 04:55:23;;;;;;;8.17;6.10;;;;;;;9.52;60.54;94175.75;5051977;28;20237;-80
2022/04/19 04:57:50;;;;;;;5.73;4.93;;;;;;;9.53;60.64;94171.44;5051551;28;20281;-77
2022/04/19 05:00:17;;;;;;;5.30;4.57;;;;;;;9.60;60.37;94184.44;5051527;28;20199;-76
2022/04/19 05:02:45;;;;;;;6.40;5.80;;;;;;;9.61;60.37;94175.84;5050942;28;20665;-79
2022/04/19 05:05:12;;;;;;;5.67;5.17;;;;;;;9.76;59.96;94176.94;5050854;28;20189;-76
2022/04/19 05:07:39;;;;;;;4.47;4.07;;;;;;;9.87;59.69;94181.81;5051412;28;20195;-76
2022/04/19 05:10:07;;;;;;;5.03;4.53;;;;;;;9.96;59.21;94183.50;5050943;28;20266;-76
2022/04/19 05:12:34;;;;;;;4.57;4.17;;;;;;;10.09;58.97;94185.69;5050428;28;20229;-76
2022/04/19 05:15:01;;;;;;;4.63;4.20;;;;;;;10.18;58.46;94195.00;5051304;28;20183;-75
2022/04/19 05:17:29;;;;;;;5.00;4.60;;;;;;;10.29;58.12;94187.16;5051346;28;20195;-77
2022/04/19 05:19:58;;;;;;;6.70;4.17;;;;;;;10.25;57.91;94162.84;5050626;28;20187;-76
2022/04/19 05:22:25;;;;;;;4.37;3.97;;;;;;;10.46;57.69;94188.09;5050224;28;20191;-76
2022/04/19 05:24:51;;;;;;;4.30;3.80;;;;;;;10.21;57.76;94132.59;5050524;28;20195;-78
2022/04/19 05:27:18;;;;;;;4.63;4.23;;;;;;;10.60;57.63;94188.50;5050141;28;20198;-77
2022/04/19 05:29:45;;;;;;;4.60;4.20;;;;;;;10.64;57.75;94194.91;5050500;28;20539;-78
2022/04/19 05:32:12;;;;;;;5.00;4.50;;;;;;;10.67;57.52;94192.06;5050129;28;20183;-77
2022/04/19 05:34:39;;;;;;;4.13;3.73;;;;;;;10.65;57.68;94188.84;5050229;28;20570;-74
2022/04/19 05:37:07;;;;;;;4.63;4.23;;;;;;;10.64;57.57;94193.16;5050147;28;20673;-75
2022/04/19 05:39:34;;;;;;;4.53;3.90;;;;;;;10.59;57.42;94182.56;5050312;28;20199;-76
2022/04/19 05:42:01;;;;;;;4.37;4.00;;;;;;;10.60;57.42;94183.38;5050202;28;20191;-77
2022/04/19 05:44:27;;;;;;;5.50;3.97;;;;;;;10.68;57.37;94198.78;5049849;28;20223;-76
2022/04/19 05:46:54;;;;;;;3.60;3.30;;;;;;;10.68;57.39;94206.44;5050129;28;20729;-76
2022/04/19 05:49:21;;;;;;;4.63;4.23;;;;;;;10.70;57.17;94201.97;5049825;28;20199;-75
2022/04/19 05:51:48;;;;;;;3.90;3.50;;;;;;;10.73;57.09;94207.59;5050202;28;20191;-77
2022/04/19 05:54:17;;;;;;;3.80;3.50;;;;;;;10.80;56.96;94210.34;5049486;28;20221;-75
2022/04/19 05:56:44;;;;;;;5.40;4.00;;;;;;;10.87;56.66;94200.31;5049941;28;20191;-76
2022/04/19 05:59:10;;;;;;;6.60;4.03;;;;;;;10.95;56.54;94208.84;5049658;28;20190;-75
2022/04/19 06:07:17;;;;;;;3.93;3.53;;;;;;;11.31;56.07;94208.66;4971651;28;20272;-77
2022/04/19 06:09:45;;;;;;;3.80;3.50;;;;;;;11.43;56.08;94210.00;4972768;28;20229;-75
2022/04/19 06:12:12;;;;;;;3.87;3.53;;;;;;;11.54;55.79;94214.06;4972951;28;20642;-76
2022/04/19 06:14:39;;;;;;;3.33;3.03;;;;;;;11.64;55.67;94216.47;4973103;28;20230;-74
2022/04/19 06:17:06;;;;;;;3.53;3.23;;;;;;;11.73;55.39;94213.78;4973048;28;20190;-75
2022/04/19 06:19:34;;;;;;;3.93;3.53;;;;;;;11.85;55.14;94213.53;4972191;28;20215;-71
2022/04/19 06:22:00;;;;;;;4.53;3.70;;;;;;;11.94;55.20;94217.69;4968543;28;20204;-77
2022/04/19 06:24:27;;;;;;;4.90;3.57;;;;;;;12.04;55.15;94211.47;4972016;28;20206;-75
2022/04/19 06:26:56;;;;;;;4.70;3.90;;;;;;;12.13;55.00;94222.53;4972511;28;20201;-74
2022/04/19 06:29:23;;;;;;;3.83;3.53;;;;;;;12.21;54.88;94222.53;4972221;28;20569;-76
2022/04/19 06:31:50;;;;;;;4.10;3.73;;;;;;;12.29;54.72;94227.66;4972237;28;20696;-80
2022/04/19 06:34:17;;;;;;;4.60;3.80;;;;;;;12.37;54.52;94223.50;4972101;28;20233;-76
2022/04/19 06:36:44;;;;;;;3.67;3.03;;;;;;;12.47;54.26;94230.06;4969320;28;20301;-75
2022/04/19 06:39:11;;;;;;;4.57;3.30;;;;;;;12.62;54.59;94232.00;4972096;28;20209;-76
2022/04/19 06:41:38;;;;;;;3.83;3.10;;;;;;;12.81;54.72;94234.22;5013724;28;20210;-77
2022/04/19 06:44:08;;;;;;;3.30;3.00;;;;;;;12.97;54.93;94223.94;5052721;28;20223;-77
2022/04/19 06:46:36;;;;;;;3.53;2.67;;;;;;;13.12;54.40;94228.38;5052537;28;20195;-76
2022/04/19 06:49:05;;;;;;;2.63;2.43;;;;;;;13.24;54.49;94225.34;5052636;28;20214;-80
2022/04/19 06:51:32;;;;;;;4.20;3.10;;;;;;;13.32;54.32;94216.00;5052601;28;20268;-77
2022/04/19 06:53:59;;;;;;;2.50;2.30;;;;;;;13.47;54.17;94232.31;5049447;28;20251;-76
2022/04/19 06:56:26;;;;;;;2.13;2.00;;;;;;;13.49;53.70;94223.47;5052371;28;20219;-76
2022/04/19 06:58:54;;;;;;;2.67;2.47;;;;;;;13.57;53.35;94230.38;5052403;28;20202;-76
2022/04/19 07:01:24;;;;;;;3.10;2.30;;;;;;;13.57;53.01;94230.38;5051474;28;20199;-75
2022/04/19 07:03:51;;;;;;;3.07;2.63;;;;;;;13.66;52.75;94236.28;5052021;28;20621;-75
2022/04/19 07:06:18;;;;;;;2.77;2.57;;;;;;;13.66;52.83;94241.41;5051183;28;20195;-79
2022/04/19 07:08:45;;;;;;;2.80;2.60;;;;;;;13.63;52.78;94241.72;5052050;28;20227;-76
2022/04/19 07:11:15;;;;;;;2.53;2.33;;;;;;;13.64;52.43;94249.25;5051583;28;20195;-77
2022/04/19 07:13:42;;;;;;;2.13;2.03;;;;;;;13.61;52.12;94238.53;5051604;28;20215;-80
2022/04/19 07:16:10;;;;;;;2.20;2.10;;;;;;;13.65;52.16;94244.94;5051751;28;20195;-77
2022/04/19 07:18:38;;;;;;;2.10;2.00;;;;;;;13.66;51.98;94243.97;5050282;28;20650;-80
2022/04/19 07:26:40;;;;;;;2.00;1.90;;;;;;;13.80;51.57;94245.81;5051425;28;20202;-75
2022/04/19 07:29:10;;;;;;;2.50;2.30;;;;;;;13.93;51.86;94245.28;5051668;28;20191;-80
2022/04/19 07:31:37;;;;;;;2.10;2.00;;;;;;;14.04;52.24;94245.72;5051295;28;20203;-76
2022/04/19 07:34:06;;;;;;;2.23;2.03;;;;;;;14.18;52.24;94249.31;5051500;28;20219;-76
2022/04/19 07:36:33;;;;;;;2.07;1.97;;;;;;;14.32;52.47;94256.28;5050819;28;20183;-80
2022/04/19 07:39:00;;;;;;;2.30;2.10;;;;;;;14.48;52.41;94249.44;5051755;28;20190;-81
2022/04/19 07:41:27;;;;;;;2.10;2.00;;;;;;;14.68;52.48;94252.34;5050525;28;20262;-78
2022/04/19 07:43:54;;;;;;;2.10;2.00;;;;;;;14.84;52.56;94247.06;5050693;28;20184;-77
2022/04/19 07:46:21;;;;;;;2.20;2.10;;;;;;;15.04;52.12;94237.09;5051398;28;20218;-81
2022/04/19 07:48:48;;;;;;;2.47;2.03;;;;;;;15.41;52.33;94248.28;5050898;28;20187;-82
2022/04/19 07:51:16;;;;;;;1.80;1.70;;;;;;;15.64;51.98;94243.88;5051182;28;20191;-76
2022/04/19 07:53:43;;;;;;;2.20;2.10;;;;;;;15.89;51.69;94253.84;5051064;28;20214;-77
2022/04/19 07:56:10;;;;;;;2.10;2.00;;;;;;;16.03;51.32;94255.63;5050632;28;20260;-80
2022/04/19 07:58:37;;;;;;;2.40;2.20;;;;;;;16.21;50.47;94262.97;5051145;28;20179;-75
2022/04/19 08:01:05;;;;;;;2.10;2.00;;;;;;;16.31;50.06;94255.72;5050721;28;20552;-78
2022/04/19 08:03:32;;;;;;;2.40;2.20;;;;;;;16.45;49.45;94254.03;5051061;28;20198;-82
2022/04/19 08:05:59;;;;;;;1.93;1.83;;;;;;;16.58;49.10;94255.94;5051484;28;20277;-80
2022/04/19 08:08:30;;;;;;;2.67;2.17;;;;;;;16.64;48.84;94258.59;5051114;28;20225;-79
2022/04/19 08:10:57;;;;;;;2.23;1.90;;;;;;;16.69;48.77;94242.56;5050429;28;20194;-76
2022/04/19 08:13:25;;;;;;;2.27;2.07;;;;;;;16.78;48.52;94264.72;5049737;28;20219;-82
2022/04/19 08:15:52;;;;;;;2.20;2.10;;;;;;;16.79;48.12;94261.94;5050536;28;20195;-78
2022/04/19 08:18:19;;;;;;;3.00;2.40;;;;;;;16.80;47.77;94250.63;5050709;28;20593;-75
2022/04/19 08:20:46;;;;;;;2.07;1.90;;;;;;;16.87;47.65;94255.03;5050497;28;20191;-79
2022/04/19 08:23:14;;;;;;;2.37;2.10;;;;;;;16.91;47.05;94251.09;5050321;28;20277;-75
2022/04/19 08:25:43;;;;;;;2.60;2.40;;;;;;;16.99;46.70;94251.75;5049598;28;20195;-77
2022/04/19 08:28:11;;;;;;;2.23;2.00;;;;;;;17.09;46.68;94240.28;5050104;28;20329;-76
2022/04/19 08:30:38;;;;;;;2.20;2.10;;;;;;;17.18;46.28;94237.38;5050480;28;20202;-75
2022/04/19 08:33:05;;;;;;;2.60;2.10;;;;;;;17.36;46.08;94241.25;5050134;28;20205;-78
2022/04/19 08:35:32;;;;;;;2.60;2.40;;;;;;;17.53;45.59;94245.16;5050879;28;20194;-80
2022/04/19 08:37:59;;;;;;;2.40;2.20;;;;;;;17.74;45.49;94241.69;5050314;28;20557;-80
2022/04/19 08:40:26;;;;;;;2.10;2.00;;;;;;;17.94;44.79;94239.19;5049746;28;20925;-77
2022/04/19 08:42:56;;;;;;;2.57;2.33;;;;;;;18.14;44.58;94240.03;5049952;28;20211;-76
2022/04/19 08:45:23;;;;;;;2.37;2.17;;;;;;;18.38;43.86;94232.72;5044558;28;20274;-77
2022/04/19 08:47:51;;;;;;;2.23;2.00;;;;;;;18.62;43.07;94233.94;5050326;28;20274;-78
2022/04/19 08:50:20;;;;;;;2.27;1.97;;;;;;;18.87;42.38;94237.59;5050515;28;20179;-78
2022/04/19 08:57:29;;;;;;;2.00;1.90;;;;;;;19.08;42.36;94228.78;5050138;28;20210;-77
2022/04/19 08:58:20;;;;;;;3.60;2.20;;;;;;;19.43;42.16;94233.69;5049484;28;20193;-77
2022/04/19 09:00:47;;;;;;;2.33;2.20;;;;;;;19.48;42.28;94239.09;5050285;28;20191;-79
2022/04/19 09:03:14;;;;;;;2.80;2.60;;;;;;;19.49;42.54;94236.28;5049826;28;20199;-80
2022/04/19 09:05:50;;;;;;;2.23;2.10;;;;;;;19.52;41.28;94232.50;5049435;28;20197;-84
2022/04/19 09:08:17;;;;;;;2.70;2.50;;;;;;;19.59;40.59;94222.88;5047614;28;20296;-82
2022/04/19 09:10:44;;;;;;;4.10;2.30;;;;;;;19.67;40.75;94234.88;5050039;28;20195;-80
2022/04/19 09:13:14;;;;;;;2.27;2.17;;;;;;;19.74;40.82;94233.06;5049290;28;20197;-79
2022/04/19 09:15:44;;;;;;;3.53;2.13;;;;;;;19.74;41.01;94223.47;5049737;28;20289;-78
2022/04/19 09:18:16;;;;;;;3.07;2.80;;;;;;;19.68;41.19;94224.28;5049407;28;20194;-78
2022/04/19 09:20:42;;;;;;;2.43;2.30;;;;;;;19.65;41.02;94219.53;5048359;28;20191;-77
2022/04/19 09:23:11;;;;;;;2.10;2.00;;;;;;;19.64;40.54;94219.69;5049668;28;20187;-79
2022/04/19 09:25:39;;;;;;;2.73;2.30;;;;;;;19.63;40.21;94215.53;5047546;28;20187;-78
2022/04/19 09:28:17;;;;;;;2.27;2.10;;;;;;;19.63;40.31;94225.91;5049120;28;20666;-77
2022/04/19 09:30:48;;;;;;;2.87;2.63;;;;;;;19.61;40.39;94225.31;5049363;28;20203;-77
2022/04/19 09:33:17;;;;;;;2.20;2.10;;;;;;;19.60;40.27;94219.28;5049329;28;20199;-78
2022/04/19 09:35:48;;;;;;;2.27;2.07;;;;;;;19.62;40.08;94221.72;5049260;28;20741;-76
2022/04/19 09:38:15;;;;;;;5.37;2.10;;;;;;;19.61;39.77;94212.34;5048955;28;20191;-78
2022/04/19 09:40:45;;;;;;;2.50;2.30;;;;;;;19.57;39.89;94221.50;5048766;28;20217;-83
2022/04/19 09:43:15;;;;;;;3.90;2.90;;;;;;;19.53;39.63;94221.91;5049240;28;20203;-78
2022/04/19 09:45:58;;;;;;;3.10;2.70;;;;;;;19.51;39.68;94217.91;5049001;28;20230;-79
2022/04/19 09:48:27;;;;;;;3.07;2.57;;;;;;;19.49;39.71;94214.75;5047927;28;20646;-83
2022/04/19 09:50:57;;;;;;;2.90;2.70;;;;;;;19.47;39.63;94214.13;5048047;28;20186;-74
2022/04/19 09:53:25;;;;;;;2.97;2.67;;;;;;;19.43;39.32;94211.19;5045769;28;20219;-78
2022/04/19 09:55:55;;;;;;;2.80;2.60;;;;;;;19.41;39.09;94202.00;5046706;28;20663;-76
2022/04/19 09:58:23;;;;;;;2.77;2.57;;;;;;;19.33;39.25;94200.41;5048351;28;20189;-78
2022/04/19 10:00:52;;;;;;;3.20;2.47;;;;;;;19.36;39.23;94197.44;5049096;28;20187;-82
2022/04/19 10:09:05;;;;;;;3.07;2.73;;;;;;;19.36;38.68;94204.41;5049214;28;20238;-81
2022/04/19 10:11:33;;;;;;;3.10;2.53;;;;;;;19.35;38.42;94205.41;5049215;28;20494;-76
2022/04/19 10:14:00;;;;;;;3.33;3.03;;;;;;;19.34;38.51;94202.00;5049450;28;20213;-85
2022/04/19 10:16:31;;;;;;;3.33;2.60;;;;;;;19.35;38.41;94201.03;5048692;28;20206;-80
2022/04/19 10:18:59;;;;;;;2.80;2.60;;;;;;;19.21;38.07;94163.97;5048814;28;20209;-80
2022/04/19 10:21:29;;;;;;;2.73;2.50;;;;;;;19.41;37.86;94194.22;5049017;28;20211;-81
2022/04/19 10:24:13;;;;;;;2.60;2.40;;;;;;;19.39;37.80;94191.03;5048999;28;20229;-83
2022/04/19 10:26:46;;;;;;;3.03;2.70;;;;;;;19.34;37.56;94177.88;5048820;28;20203;-77
2022/04/19 10:29:21;;;;;;;2.47;2.23;;;;;;;19.33;37.44;94182.25;5050818;28;20198;-78
2022/04/19 10:32:01;;;;;;;2.20;2.00;;;;;;;19.34;37.53;94183.84;5051292;28;20194;-81
2022/04/19 10:34:30;;;;;;;2.10;2.00;;;;;;;19.35;37.33;94179.50;5046870;28;20842;-83
2022/04/19 10:37:00;;;;;;;3.80;2.33;;;;;;;19.32;37.25;94180.69;5048951;28;20183;-84
2022/04/19 10:39:30;;;;;;;7.17;2.47;;;;;;;19.30;36.74;94188.66;5048825;28;20210;-81
2022/04/19 10:41:59;;;;;;;2.83;2.37;;;;;;;19.25;36.54;94180.69;5047711;28;20253;-75
2022/04/19 10:44:28;;;;;;;3.50;3.20;;;;;;;19.10;36.48;94164.59;5048570;28;20194;-76
2022/04/19 10:47:15;;;;;;;4.53;3.70;;;;;;;19.07;36.25;94169.38;5048506;28;20650;-82
2022/04/19 10:49:49;;;;;;;5.33;3.20;;;;;;;19.03;36.16;94181.94;5048881;28;20191;-80
2022/04/19 10:52:49;;;;;;;2.77;2.57;;;;;;;18.92;36.21;94188.53;5056852;28;20179;-79
2022/04/19 10:55:25;;;;;;;2.60;2.40;;;;;;;18.78;36.17;94182.59;5050491;28;20215;-79
2022/04/19 10:58:12;;;;;;;2.87;2.63;;;;;;;18.71;36.13;94186.16;5052737;28;20191;-76
2022/04/19 11:00:45;;;;;;;2.53;2.27;;;;;;;18.61;36.06;94183.94;5051961;28;20182;-73
2022/04/19 11:03:15;;;;;;;2.77;2.50;;;;;;;18.55;36.19;94182.13;5050232;28;20187;-75
2022/04/19 11:05:44;;;;;;;2.57;2.37;;;;;;;18.46;36.26;94183.34;5052164;28;20198;-80
2022/04/19 11:08:38;;;;;;;2.60;2.40;;;;;;;18.50;36.39;94187.91;5052657;28;20187;-81
2022/04/19 11:11:23;;;;;;;3.67;2.50;;;;;;;18.46;36.53;94170.38;5052524;28;20227;-81
2022/04/19 11:14:19;;;;;;;2.63;2.43;;;;;;;18.49;36.43;94175.97;5051682;28;20179;-82
2022/04/19 11:16:50;;;;;;;2.57;2.37;;;;;;;18.47;36.44;94169.38;5051397;28;20190;-80
2022/04/19 11:19:20;;;;;;;3.73;2.30;;;;;;;18.51;36.37;94173.97;5052178;28;20577;-78
2022/04/19 11:21:59;;;;;;;2.57;2.37;;;;;;;18.49;36.28;94173.38;5051835;28;20252;-79
2022/04/19 11:25:00;;;;;;;2.87;2.37;;;;;;;18.51;36.06;94168.00;5051358;28;20199;-77
2022/04/19 11:28:00;;;;;;;2.40;2.20;;;;;;;18.46;36.14;94165.22;5050413;28;20295;-79
2022/04/19 11:30:28;;;;;;;2.10;2.00;;;;;;;18.38;36.17;94165.41;5051450;28;20264;-76
2022/04/19 11:32:56;;;;;;;2.20;2.00;;;;;;;18.27;35.94;94162.41;5051823;28;20191;-76
2022/04/19 11:35:26;;;;;;;2.30;2.10;;;;;;;18.23;36.13;94161.22;5051203;28;20227;-79
2022/04/19 11:37:53;;;;;;;2.03;1.90;;;;;;;18.21;36.10;94159.81;5051501;28;20227;-77
2022/04/19 11:48:50;;;;;;;2.03;1.93;;;;;;;18.03;35.61;94152.63;4987134;28;20239;-79
2022/04/19 11:51:20;;;;;;;2.27;2.07;;;;;;;18.03;35.16;94165.56;4989830;28;20714;-80
2022/04/19 11:53:49;;;;;;;2.20;2.00;;;;;;;17.93;34.92;94172.91;4989210;28;20189;-82
2022/04/19 11:56:16;;;;;;;2.70;1.93;;;;;;;17.80;34.94;94171.88;4989676;28;20831;-79
2022/04/19 11:58:47;;;;;;;2.43;2.20;;;;;;;17.75;35.16;94176.84;4988953;28;20364;-81
2022/04/19 12:01:14;;;;;;;2.37;2.17;;;;;;;17.74;35.44;94188.16;4989813;28;20196;-80
2022/04/19 12:03:42;;;;;;;2.40;2.20;;;;;;;17.69;35.38;94174.97;4988537;28;20295;-80
2022/04/19 12:06:10;;;;;;;2.50;2.30;;;;;;;17.67;35.62;94174.41;4989273;28;20193;-79
2022/04/19 12:08:41;;;;;;;2.27;2.13;;;;;;;17.67;35.81;94173.59;4988940;28;20324;-79
2022/04/19 12:11:10;;;;;;;2.00;1.90;;;;;;;17.67;35.76;94179.56;4989387;28;20803;-81
2022/04/19 12:13:38;;;;;;;2.30;2.07;;;;;;;17.67;35.73;94171.81;4989154;28;20189;-79
2022/04/19 12:16:08;;;;;;;2.10;1.90;;;;;;;17.66;35.86;94153.88;4989372;28;20232;-80
2022/04/19 12:18:36;;;;;;;1.93;1.60;;;;;;;17.85;36.09;94163.53;5045653;28;20260;-78
2022/04/19 12:21:05;;;;;;;3.37;2.00;;;;;;;17.96;36.07;94154.38;5049437;28;20549;-77
2022/04/19 12:23:34;;;;;;;2.73;2.27;;;;;;;18.04;35.51;94152.41;5049991;28;20180;-74